Time;durP1;ratioP1;P1;durP2;ratioP2;P2;SDS_P1;SDS_P2;PMS_P1;PMS_P2;Temp;Humidity;BMP_temperature;BMP_pressure;BME280_temperature;BME280_humidity;BME280_pressure;Samples;Min_cycle;Max_cycle;Signal;HPM_P1;HPM_P2
2023/03/16 00:00:53;;;;;;;5.43;4.67;;;2.40;99.90;;;;;;6087160;23;20437;-75
2023/03/16 00:03:20;;;;;;;11.53;6.13;;;2.30;99.90;;;;;;6036889;23;20489;-74
2023/03/16 00:05:49;;;;;;;8.57;5.47;;;2.30;99.90;;;;;;6032744;23;20146;-75
2023/03/16 00:08:16;;;;;;;10.70;5.57;;;2.40;99.90;;;;;;6048188;23;20369;-73
2023/03/16 00:10:48;;;;;;;9.47;5.00;;;2.40;99.90;;;;;;6045617;23;20401;-74
2023/03/16 00:13:18;;;;;;;8.10;6.10;;;2.40;99.90;;;;;;6075599;23;20366;-75
2023/03/16 00:15:55;;;;;;;13.80;5.63;;;2.40;99.90;;;;;;6070715;23;20922;-74
2023/03/16 00:18:26;;;;;;;9.93;6.10;;;2.40;99.90;;;;;;6071238;23;20684;-74
2023/03/16 00:20:58;;;;;;;6.13;4.57;;;2.50;99.90;;;;;;6070089;23;20819;-73
2023/03/16 00:23:28;;;;;;;12.40;6.27;;;2.40;99.90;;;;;;6046100;23;20425;-75
2023/03/16 00:25:58;;;;;;;12.20;6.23;;;2.40;99.90;;;;;;6069638;23;20517;-74
2023/03/16 00:28:25;;;;;;;6.33;4.90;;;2.40;99.90;;;;;;6045793;23;20370;-74
2023/03/16 00:30:51;;;;;;;10.07;5.83;;;2.40;99.90;;;;;;6055887;23;20401;-75
2023/03/16 00:33:17;;;;;;;7.57;5.00;;;2.40;99.90;;;;;;6050861;23;20417;-72
2023/03/16 00:35:49;;;;;;;7.20;4.90;;;2.40;99.90;;;;;;6076137;23;20141;-74
2023/03/16 00:38:17;;;;;;;6.60;4.43;;;2.50;99.90;;;;;;6071151;23;20138;-73
2023/03/16 00:40:43;;;;;;;8.17;4.67;;;2.50;99.90;;;;;;6071111;23;20433;-73
2023/03/16 00:43:08;;;;;;;13.40;5.50;;;2.50;99.90;;;;;;6045375;23;20428;-74
2023/03/16 00:45:35;;;;;;;9.90;4.53;;;2.50;99.90;;;;;;6070724;23;20362;-74
2023/03/16 00:48:00;;;;;;;10.77;5.20;;;2.50;99.90;;;;;;6073436;23;20396;-74
2023/03/16 00:50:26;;;;;;;9.30;5.03;;;2.50;99.90;;;;;;6057706;23;20408;-74
2023/03/16 00:52:52;;;;;;;5.80;4.10;;;2.40;99.90;;;;;;6057692;23;20145;-74
2023/03/16 00:55:19;;;;;;;5.87;4.33;;;2.50;99.90;;;;;;6084128;23;20457;-74
2023/03/16 00:57:44;;;;;;;10.00;5.40;;;2.50;99.90;;;;;;6047120;23;20600;-72
2023/03/16 01:00:14;;;;;;;8.03;4.93;;;2.50;99.90;;;;;;6045443;23;20414;-74
2023/03/16 01:02:40;;;;;;;6.80;4.57;;;2.50;99.90;;;;;;6046374;23;20551;-74
2023/03/16 01:05:06;;;;;;;7.20;4.60;;;2.60;99.90;;;;;;6048767;23;20417;-74
2023/03/16 01:07:35;;;;;;;6.17;4.80;;;2.60;99.90;;;;;;6073205;23;20366;-74
2023/03/16 01:10:01;;;;;;;5.73;4.30;;;2.60;99.90;;;;;;6070094;23;20393;-73
2023/03/16 01:12:26;;;;;;;7.03;5.00;;;2.60;99.80;;;;;;6071399;23;20368;-73
2023/03/16 01:14:52;;;;;;;5.30;3.90;;;2.60;99.70;;;;;;6044877;23;20398;-74
2023/03/16 01:17:18;;;;;;;8.60;4.90;;;2.60;99.70;;;;;;6046188;23;20477;-73
2023/03/16 01:19:47;;;;;;;5.90;4.60;;;2.60;99.80;;;;;;6052445;23;20183;-76
2023/03/16 01:22:16;;;;;;;9.70;5.40;;;2.70;99.30;;;;;;6088224;23;20176;-74
2023/03/16 01:24:45;;;;;;;6.20;4.17;;;2.70;99.20;;;;;;6051558;23;20374;-75
2023/03/16 01:27:12;;;;;;;7.13;4.63;;;2.80;99.00;;;;;;6052954;23;20386;-74
2023/03/16 01:29:39;;;;;;;4.93;4.20;;;2.80;98.70;;;;;;6029633;23;20394;-73
2023/03/16 01:32:06;;;;;;;6.80;4.27;;;2.80;98.70;;;;;;6052694;23;20389;-73
2023/03/16 01:34:34;;;;;;;4.70;3.73;;;2.90;98.40;;;;;;6031205;23;20377;-73
2023/03/16 01:37:00;;;;;;;6.50;4.30;;;2.90;98.20;;;;;;5997691;23;20387;-74
2023/03/16 01:39:34;;;;;;;5.93;4.63;;;2.90;98.30;;;;;;5973997;23;20443;-73
2023/03/16 01:42:01;;;;;;;8.80;4.87;;;2.90;98.50;;;;;;5997921;23;20503;-76
2023/03/16 01:44:50;;;;;;;7.60;4.70;;;2.90;98.10;;;;;;5973249;23;20387;-74
2023/03/16 01:47:17;;;;;;;11.93;4.90;;;2.80;97.80;;;;;;5974701;23;20383;-74
2023/03/16 01:49:46;;;;;;;5.97;3.53;;;2.80;98.10;;;;;;5972427;23;20395;-74
2023/03/16 01:52:22;;;;;;;9.43;4.33;;;2.80;98.00;;;;;;5996944;23;20391;-73
2023/03/16 01:54:58;;;;;;;5.73;3.60;;;2.70;97.90;;;;;;6012213;23;20378;-74
2023/03/16 01:57:29;;;;;;;8.03;4.23;;;2.80;97.60;;;;;;5987103;23;20459;-74
2023/03/16 02:00:22;;;;;;;5.50;3.90;;;2.80;97.60;;;;;;5962786;23;20418;-74
2023/03/16 02:03:16;;;;;;;4.83;3.50;;;2.80;97.50;;;;;;5987070;23;20427;-75
2023/03/16 02:05:52;;;;;;;4.97;3.63;;;2.70;97.90;;;;;;5987747;23;20411;-74
2023/03/16 02:08:21;;;;;;;7.43;3.90;;;2.70;98.20;;;;;;6025205;23;20443;-73
2023/03/16 02:10:47;;;;;;;10.47;5.13;;;2.70;97.90;;;;;;6071738;23;20393;-73
2023/03/16 02:13:13;;;;;;;7.13;4.20;;;2.70;97.70;;;;;;6049205;23;20390;-73
2023/03/16 02:15:39;;;;;;;10.90;4.20;;;2.70;97.70;;;;;;6024272;23;20453;-73
2023/03/16 02:18:06;;;;;;;4.90;3.57;;;2.80;97.50;;;;;;6044999;23;20464;-74
2023/03/16 02:20:51;;;;;;;7.90;3.70;;;2.70;97.60;;;;;;6044442;23;20196;-74
2023/03/16 02:23:19;;;;;;;5.93;3.37;;;2.70;97.50;;;;;;6070531;23;20409;-75
2023/03/16 02:26:33;;;;;;;4.57;3.50;;;2.70;97.90;;;;;;6021672;23;20432;-75
2023/03/16 02:29:10;;;;;;;6.43;3.70;;;2.60;98.20;;;;;;6070359;23;20373;-75
2023/03/16 02:31:37;;;;;;;8.63;4.13;;;2.70;97.80;;;;;;6049105;23;20656;-74
2023/03/16 02:34:06;;;;;;;3.87;3.17;;;2.70;97.40;;;;;;6048333;23;20488;-74
2023/03/16 02:36:33;;;;;;;5.60;3.50;;;2.70;97.50;;;;;;6047456;23;20370;-74
2023/03/16 02:38:59;;;;;;;7.03;3.70;;;2.70;97.50;;;;;;6047451;23;20807;-75
2023/03/16 02:41:25;;;;;;;6.20;3.27;;;2.70;97.50;;;;;;6072371;23;20460;-73
2023/03/16 02:44:02;;;;;;;5.53;3.60;;;2.60;97.70;;;;;;6046834;23;20697;-74
2023/03/16 02:46:34;;;;;;;3.77;2.70;;;2.50;97.80;;;;;;6047235;23;20881;-74
2023/03/16 02:49:15;;;;;;;4.33;3.50;;;2.50;97.90;;;;;;6048284;23;20637;-74
2023/03/16 02:51:41;;;;;;;6.93;3.57;;;2.60;97.90;;;;;;6047081;23;20433;-74
2023/03/16 02:54:07;;;;;;;7.17;3.70;;;2.60;97.80;;;;;;6046594;23;20374;-73
2023/03/16 02:56:33;;;;;;;6.10;2.97;;;2.60;97.70;;;;;;6047228;23;20395;-73
2023/03/16 02:59:00;;;;;;;6.50;3.97;;;2.60;97.60;;;;;;6072091;23;20413;-73
2023/03/16 03:01:26;;;;;;;6.17;4.10;;;2.70;97.40;;;;;;6052331;23;20141;-75
2023/03/16 03:03:51;;;;;;;4.53;3.10;;;2.70;97.40;;;;;;6071629;23;20428;-75
2023/03/16 03:06:17;;;;;;;6.00;3.80;;;2.70;97.20;;;;;;6022975;23;20137;-74
2023/03/16 03:08:44;;;;;;;6.13;3.80;;;2.90;96.80;;;;;;6046769;23;20149;-74
2023/03/16 03:11:09;;;;;;;4.13;3.30;;;2.80;96.90;;;;;;6071198;23;20385;-74
2023/03/16 03:13:38;;;;;;;6.40;3.60;;;2.70;96.90;;;;;;6071702;23;20191;-74
2023/03/16 03:16:03;;;;;;;5.70;3.07;;;2.80;96.70;;;;;;6046497;23;20372;-74
2023/03/16 03:18:29;;;;;;;5.97;3.70;;;2.80;96.70;;;;;;6045951;23;20706;-73
2023/03/16 03:20:55;;;;;;;5.30;3.37;;;2.70;97.00;;;;;;6071221;23;20165;-74
2023/03/16 03:23:20;;;;;;;4.30;2.67;;;2.80;96.80;;;;;;6046375;23;20498;-74
2023/03/16 03:25:46;;;;;;;4.73;3.67;;;2.80;96.60;;;;;;6070813;23;20172;-74
2023/03/16 03:28:13;;;;;;;5.60;3.20;;;2.80;96.60;;;;;;6048522;23;20543;-73
2023/03/16 03:30:39;;;;;;;8.40;3.90;;;2.70;96.40;;;;;;6046011;23;20390;-74
2023/03/16 03:33:05;;;;;;;7.70;4.03;;;2.70;96.50;;;;;;6048129;23;20866;-74
2023/03/16 03:35:30;;;;;;;6.97;3.00;;;2.70;96.60;;;;;;6048904;23;20236;-74
2023/03/16 03:37:56;;;;;;;4.00;2.93;;;2.80;96.50;;;;;;6045844;23;20208;-74
2023/03/16 03:40:21;;;;;;;5.93;3.23;;;2.70;96.40;;;;;;6071601;23;20168;-73
2023/03/16 03:42:54;;;;;;;3.67;2.70;;;2.70;96.20;;;;;;6024081;23;20177;-75
2023/03/16 03:45:22;;;;;;;5.33;3.20;;;2.70;96.30;;;;;;6045853;23;20404;-74
2023/03/16 03:47:47;;;;;;;5.70;3.67;;;2.60;96.20;;;;;;6046104;23;20374;-75
2023/03/16 03:50:18;;;;;;;4.23;3.20;;;2.70;96.20;;;;;;6044903;23;20173;-74
2023/03/16 03:53:06;;;;;;;4.10;2.90;;;2.60;95.90;;;;;;6046290;23;20417;-73
2023/03/16 03:55:40;;;;;;;4.57;3.30;;;2.60;96.10;;;;;;6045839;23;20783;-75
2023/03/16 03:58:06;;;;;;;5.20;3.30;;;2.60;96.30;;;;;;6047003;23;20392;-75
2023/03/16 04:00:32;;;;;;;5.03;3.63;;;2.60;96.60;;;;;;6045813;23;20176;-74
2023/03/16 04:02:57;;;;;;;4.83;3.27;;;2.50;96.70;;;;;;6071553;23;20253;-75
2023/03/16 04:05:31;;;;;;;3.70;2.90;;;2.50;96.80;;;;;;6045629;23;20161;-75
2023/03/16 04:07:57;;;;;;;4.33;2.70;;;2.50;97.10;;;;;;6071770;23;20743;-74
2023/03/16 04:10:27;;;;;;;7.80;4.00;;;2.50;97.00;;;;;;6045975;23;20409;-74
2023/03/16 04:12:55;;;;;;;7.60;3.30;;;2.50;97.10;;;;;;6046398;23;20146;-73
2023/03/16 04:15:21;;;;;;;6.60;4.07;;;2.50;97.20;;;;;;6070998;23;20617;-73
2023/03/16 04:17:59;;;;;;;4.90;3.50;;;2.50;97.10;;;;;;6046283;23;20388;-72
2023/03/16 04:20:25;;;;;;;4.10;3.10;;;2.60;97.10;;;;;;6045711;23;20409;-73
2023/03/16 04:22:57;;;;;;;4.23;3.10;;;2.60;97.30;;;;;;6022115;23;20177;-74
2023/03/16 04:25:25;;;;;;;7.87;4.60;;;2.60;96.90;;;;;;6021494;23;20153;-72
2023/03/16 04:27:51;;;;;;;5.30;3.30;;;2.60;97.10;;;;;;6047518;23;20362;-75
2023/03/16 04:30:18;;;;;;;7.50;3.77;;;2.70;97.10;;;;;;6046482;23;20421;-73
2023/03/16 04:32:48;;;;;;;5.67;3.60;;;2.60;96.90;;;;;;6045298;23;20409;-74
2023/03/16 04:35:17;;;;;;;2.90;2.60;;;2.70;96.60;;;;;;6045651;23;20389;-74
2023/03/16 04:37:48;;;;;;;6.63;3.67;;;2.70;96.90;;;;;;6045605;23;20386;-73
2023/03/16 04:40:14;;;;;;;6.10;3.73;;;2.70;96.70;;;;;;6045442;23;20405;-74
2023/03/16 04:42:43;;;;;;;7.50;4.27;;;2.70;96.70;;;;;;6045744;23;20494;-73
2023/03/16 04:45:13;;;;;;;7.30;4.03;;;2.70;96.70;;;;;;6045865;23;20397;-74
2023/03/16 04:47:39;;;;;;;4.93;3.57;;;2.80;96.80;;;;;;6045936;23;20611;-75
2023/03/16 04:50:06;;;;;;;5.10;3.03;;;2.80;96.80;;;;;;6022316;23;20436;-75
2023/03/16 04:52:32;;;;;;;7.77;4.40;;;2.80;96.60;;;;;;6045012;23;20377;-74
2023/03/16 04:55:00;;;;;;;5.80;4.10;;;2.90;96.80;;;;;;6045830;23;20414;-74
2023/03/16 04:57:25;;;;;;;7.00;3.63;;;2.90;96.50;;;;;;6071003;23;20362;-75
2023/03/16 04:59:52;;;;;;;5.73;4.27;;;2.90;96.70;;;;;;6044793;23;20178;-74
2023/03/16 05:02:40;;;;;;;7.60;3.93;;;2.90;96.80;;;;;;6050655;23;20408;-74
2023/03/16 05:05:06;;;;;;;7.90;4.30;;;2.90;96.80;;;;;;6050506;23;20493;-73
2023/03/16 05:07:33;;;;;;;8.57;4.27;;;2.90;96.40;;;;;;6051430;23;20384;-73
2023/03/16 05:09:59;;;;;;;6.53;3.40;;;3.00;96.30;;;;;;6051838;23;20453;-75
2023/03/16 05:12:25;;;;;;;6.50;4.07;;;2.90;96.20;;;;;;6028509;23;20150;-75
2023/03/16 05:14:57;;;;;;;7.40;4.83;;;3.00;96.40;;;;;;6053811;23;20425;-76
2023/03/16 05:17:32;;;;;;;7.40;4.80;;;2.90;96.40;;;;;;6054317;23;20385;-75
2023/03/16 05:19:58;;;;;;;8.30;5.77;;;3.00;96.50;;;;;;6053182;23;20386;-75
2023/03/16 05:22:24;;;;;;;10.43;4.40;;;3.00;96.50;;;;;;6058242;23;20500;-75
2023/03/16 05:25:17;;;;;;;8.23;5.17;;;3.10;96.30;;;;;;6071752;23;20644;-75
2023/03/16 05:27:51;;;;;;;6.73;3.97;;;3.00;96.60;;;;;;6031578;23;20405;-75
2023/03/16 05:30:33;;;;;;;7.53;4.97;;;3.10;96.50;;;;;;6034334;23;20393;-76
2023/03/16 05:33:02;;;;;;;6.80;4.40;;;3.10;96.50;;;;;;6036018;23;20366;-74
2023/03/16 05:35:29;;;;;;;4.80;3.70;;;3.10;96.40;;;;;;6030338;23;20388;-76
2023/03/16 05:37:59;;;;;;;6.43;4.50;;;3.20;96.60;;;;;;6032047;23;20172;-75
2023/03/16 05:40:26;;;;;;;8.47;4.80;;;3.10;96.50;;;;;;6031886;23;20409;-74
2023/03/16 05:43:03;;;;;;;8.33;4.80;;;3.20;96.40;;;;;;6035876;23;20692;-75
2023/03/16 05:45:32;;;;;;;7.53;4.30;;;3.30;96.40;;;;;;6057526;23;20386;-78
2023/03/16 05:48:20;;;;;;;6.20;4.27;;;3.30;96.40;;;;;;6063478;23;20439;-73
2023/03/16 05:50:51;;;;;;;6.80;4.67;;;3.30;96.50;;;;;;6057985;23;20477;-75
2023/03/16 05:53:27;;;;;;;6.77;4.70;;;3.30;96.30;;;;;;6039444;23;20401;-77
2023/03/16 05:55:55;;;;;;;8.70;5.63;;;3.30;96.40;;;;;;6044692;23;20361;-78
2023/03/16 05:58:21;;;;;;;5.83;4.70;;;3.30;96.30;;;;;;6040878;23;20376;-76
2023/03/16 06:00:54;;;;;;;10.23;5.70;;;3.30;96.40;;;;;;6059648;23;20385;-77
2023/03/16 06:03:25;;;;;;;6.93;4.93;;;3.30;96.20;;;;;;6058118;23;20433;-75
2023/03/16 06:05:52;;;;;;;13.13;5.93;;;3.30;96.20;;;;;;6058168;23;20350;-76
2023/03/16 06:08:25;;;;;;;11.17;6.10;;;3.30;96.00;;;;;;6058413;23;20385;-74
2023/03/16 06:10:53;;;;;;;9.80;5.30;;;3.30;96.10;;;;;;6034941;23;20428;-74
2023/03/16 06:13:20;;;;;;;6.03;4.70;;;3.30;96.20;;;;;;6036906;23;20602;-78
2023/03/16 06:15:49;;;;;;;8.83;4.80;;;3.40;96.30;;;;;;6061519;23;20368;-76
2023/03/16 06:18:16;;;;;;;11.83;5.43;;;3.40;95.90;;;;;;6037890;23;20799;-77
2023/03/16 06:20:45;;;;;;;7.60;4.60;;;3.50;96.00;;;;;;6036809;23;20475;-78
2023/03/16 06:23:14;;;;;;;7.90;5.30;;;3.50;96.00;;;;;;6036220;23;20449;-78
2023/03/16 06:25:46;;;;;;;8.10;5.77;;;3.50;96.00;;;;;;6062436;23;20392;-75
2023/03/16 06:28:12;;;;;;;8.60;5.10;;;3.60;95.60;;;;;;6039583;23;20424;-75
2023/03/16 06:30:39;;;;;;;6.63;4.40;;;3.70;95.30;;;;;;6059124;23;20425;-76
2023/03/16 06:33:06;;;;;;;8.77;4.40;;;3.80;94.90;;;;;;6060318;23;20402;-76
2023/03/16 06:35:33;;;;;;;7.80;5.17;;;3.90;94.20;;;;;;6063150;23;20378;-76
2023/03/16 06:38:13;;;;;;;8.00;5.27;;;3.90;94.10;;;;;;6066707;23;20377;-77
2023/03/16 06:41:09;;;;;;;7.77;4.83;;;4.10;93.20;;;;;;6036283;23;20417;-78
2023/03/16 06:43:56;;;;;;;8.23;5.63;;;4.20;92.50;;;;;;6060656;23;20478;-77
2023/03/16 06:46:42;;;;;;;8.23;5.53;;;4.10;92.30;;;;;;6037569;23;20653;-75
2023/03/16 06:49:09;;;;;;;8.40;5.17;;;4.20;91.70;;;;;;6032687;23;20934;-75
2023/03/16 06:51:37;;;;;;;7.27;5.33;;;4.30;92.00;;;;;;6059247;23;20363;-77
2023/03/16 06:54:13;;;;;;;6.67;4.70;;;4.30;91.50;;;;;;6055867;23;20138;-74
2023/03/16 06:56:39;;;;;;;5.97;4.30;;;4.30;91.30;;;;;;6029921;23;20387;-77
2023/03/16 06:59:05;;;;;;;10.63;5.50;;;4.40;91.30;;;;;;6053252;23;20712;-74
2023/03/16 07:01:31;;;;;;;5.40;4.37;;;4.50;90.90;;;;;;6053547;23;20175;-76
2023/03/16 07:03:57;;;;;;;7.70;4.60;;;4.50;90.30;;;;;;6056893;23;20489;-76
2023/03/16 07:06:27;;;;;;;7.90;6.40;;;4.60;88.20;;;;;;6030538;23;20158;-74
2023/03/16 07:08:53;;;;;;;5.50;4.37;;;4.70;88.10;;;;;;6032346;23;20710;-75
2023/03/16 07:11:20;;;;;;;6.50;5.00;;;4.60;89.40;;;;;;6067386;23;20389;-77
2023/03/16 07:13:46;;;;;;;6.93;4.77;;;4.70;88.00;;;;;;6039952;23;20788;-75
2023/03/16 07:16:14;;;;;;;7.97;5.47;;;4.70;89.40;;;;;;6062268;23;20153;-77
2023/03/16 07:18:43;;;;;;;8.87;5.00;;;4.90;88.20;;;;;;6059631;23;20449;-76
2023/03/16 07:21:13;;;;;;;8.17;5.63;;;4.90;87.10;;;;;;6061535;23;20402;-77
2023/03/16 07:23:39;;;;;;;5.27;4.60;;;4.90;85.60;;;;;;6041402;23;20445;-77
2023/03/16 07:26:07;;;;;;;5.20;3.90;;;5.00;85.20;;;;;;6038621;23;20389;-79
2023/03/16 07:28:35;;;;;;;6.57;4.70;;;5.10;84.10;;;;;;6063525;23;20365;-76
2023/03/16 07:31:03;;;;;;;7.73;5.10;;;5.20;85.10;;;;;;6040927;23;20417;-78
2023/03/16 07:33:36;;;;;;;6.97;4.60;;;5.20;83.70;;;;;;6067526;23;20372;-78
2023/03/16 07:36:08;;;;;;;8.60;4.90;;;5.30;83.70;;;;;;6066706;23;20377;-78
2023/03/16 07:38:40;;;;;;;5.33;4.10;;;5.40;83.40;;;;;;6089312;23;20368;-78
2023/03/16 07:41:07;;;;;;;5.97;4.77;;;5.50;82.50;;;;;;6044255;23;20385;-78
2023/03/16 07:43:34;;;;;;;9.27;5.20;;;5.60;81.30;;;;;;6043202;23;20423;-77
2023/03/16 07:46:04;;;;;;;7.40;5.10;;;5.70;79.60;;;;;;6041473;23;20378;-78
2023/03/16 07:48:31;;;;;;;7.67;5.00;;;5.70;79.80;;;;;;6041153;23;20366;-75
2023/03/16 07:51:00;;;;;;;10.97;4.90;;;5.80;79.00;;;;;;6064309;23;20398;-78
2023/03/16 07:53:27;;;;;;;10.73;5.63;;;5.90;78.20;;;;;;6040396;23;20437;-78
2023/03/16 07:56:11;;;;;;;6.93;4.97;;;6.00;76.50;;;;;;6041492;23;20385;-77
2023/03/16 07:58:38;;;;;;;6.70;5.20;;;6.10;75.70;;;;;;6041837;23;20392;-77
2023/03/16 08:01:04;;;;;;;7.60;4.57;;;6.10;76.50;;;;;;6038269;23;20398;-78
2023/03/16 08:03:34;;;;;;;7.23;5.50;;;6.20;73.70;;;;;;6059848;23;20194;-80
2023/03/16 08:06:01;;;;;;;6.40;4.33;;;6.20;74.30;;;;;;6039305;23;20403;-78
2023/03/16 08:08:30;;;;;;;7.60;4.97;;;6.40;71.80;;;;;;6037672;23;20418;-77
2023/03/16 08:11:14;;;;;;;8.20;4.90;;;6.50;71.60;;;;;;6038397;23;20390;-78
2023/03/16 08:13:53;;;;;;;6.20;4.30;;;6.50;71.70;;;;;;6064178;23;20481;-78
2023/03/16 08:16:22;;;;;;;7.40;4.80;;;6.70;71.90;;;;;;6043578;23;20558;-78
2023/03/16 08:18:51;;;;;;;5.63;4.70;;;6.70;70.40;;;;;;6066209;23;20406;-79
2023/03/16 08:21:21;;;;;;;10.13;5.30;;;6.80;69.40;;;;;;6044599;23;20421;-77
2023/03/16 08:23:49;;;;;;;5.50;4.47;;;6.80;69.80;;;;;;6066437;23;20397;-79
2023/03/16 08:26:18;;;;;;;9.63;4.30;;;6.90;70.30;;;;;;6066741;23;20373;-79
2023/03/16 08:31:56;;;;;;;5.50;4.27;;;6.90;67.90;;;;;;6091239;23;20436;-76
2023/03/16 08:34:31;;;;;;;6.80;4.57;;;7.10;68.20;;;;;;5993521;23;20386;-77
2023/03/16 08:37:05;;;;;;;4.87;4.30;;;7.30;66.80;;;;;;6062871;23;20374;-78
2023/03/16 08:39:32;;;;;;;6.17;3.93;;;7.20;67.00;;;;;;6010927;23;20407;-78
2023/03/16 08:42:02;;;;;;;8.47;4.57;;;7.40;65.90;;;;;;6032279;23;20422;-79
2023/03/16 08:44:38;;;;;;;8.37;4.70;;;7.50;65.10;;;;;;5958197;24;20385;-78
2023/03/16 08:47:09;;;;;;;7.03;4.87;;;7.70;64.20;;;;;;5956236;24;20364;-79
2023/03/16 08:49:36;;;;;;;6.83;4.80;;;7.90;62.70;;;;;;5978487;24;20401;-78
2023/03/16 08:52:12;;;;;;;7.43;5.63;;;7.90;61.90;;;;;;5976803;24;20385;-78
2023/03/16 08:54:40;;;;;;;8.90;4.80;;;7.70;60.80;;;;;;5977166;24;20395;-78
2023/03/16 08:57:08;;;;;;;5.80;5.20;;;7.70;61.80;;;;;;5917347;24;20435;-78
2023/03/16 08:59:39;;;;;;;5.83;5.13;;;7.90;61.20;;;;;;5922759;24;20496;-79
2023/03/16 09:02:12;;;;;;;6.33;4.77;;;7.90;59.30;;;;;;5900772;24;20418;-78
2023/03/16 09:04:41;;;;;;;7.57;5.10;;;8.00;59.20;;;;;;5864533;24;20402;-78
2023/03/16 09:07:10;;;;;;;9.20;4.60;;;8.00;59.10;;;;;;5950693;24;20688;-78
2023/03/16 09:09:47;;;;;;;8.90;5.57;;;7.90;59.50;;;;;;5927309;23;20451;-78
2023/03/16 09:12:13;;;;;;;5.20;4.27;;;7.90;60.30;;;;;;5951208;24;20376;-78
2023/03/16 09:14:39;;;;;;;5.77;4.73;;;8.10;59.60;;;;;;5930985;24;20389;-77
2023/03/16 09:18:04;;;;;;;;;;;;;;;;;;;;;
2023/03/16 09:20:48;;;;;;;6.83;5.50;;;8.00;59.40;;;;;;6087401;23;20480;-78
2023/03/16 09:23:22;;;;;;;6.03;4.90;;;8.20;59.60;;;;;;6043673;23;20445;-75
2023/03/16 09:25:52;;;;;;;6.33;5.23;;;8.20;60.50;;;;;;6023549;23;20365;-78
2023/03/16 09:28:37;;;;;;;6.90;5.10;;;8.20;59.90;;;;;;5988252;23;20425;-78
2023/03/16 09:31:17;;;;;;;8.53;5.33;;;8.30;59.90;;;;;;6088212;23;20456;-77
2023/03/16 09:33:43;;;;;;;12.60;7.87;;;8.40;59.30;;;;;;6098506;23;20356;-79
2023/03/16 09:36:14;;;;;;;6.80;6.10;;;8.60;58.80;;;;;;6040245;23;20420;-79
2023/03/16 09:38:43;;;;;;;6.70;4.90;;;8.70;58.30;;;;;;6040602;23;20469;-79
2023/03/16 09:41:43;;;;;;;6.07;4.80;;;8.80;57.80;;;;;;6041662;23;20398;-79
2023/03/16 09:44:22;;;;;;;7.33;4.80;;;8.90;57.20;;;;;;6087736;23;20432;-79
2023/03/16 09:47:02;;;;;;;6.70;5.63;;;9.10;56.80;;;;;;6048072;23;20461;-79
2023/03/16 09:49:41;;;;;;;8.73;4.90;;;9.30;56.50;;;;;;6068620;23;20420;-78
2023/03/16 09:52:48;;;;;;;7.87;5.63;;;9.30;56.10;;;;;;6034334;23;20400;-78
2023/03/16 09:58:26;;;;;;;5.77;4.67;;;9.30;55.60;;;;;;6116106;23;20452;-80
2023/03/16 10:01:02;;;;;;;6.33;5.43;;;9.40;55.30;;;;;;6109503;23;20480;-79
2023/03/16 10:06:27;;;;;;;7.17;5.30;;;9.10;56.00;;;;;;6093398;23;20453;-79
2023/03/16 10:23:25;;;;;;;5.23;4.30;;;9.10;56.30;;;;;;6088043;23;20440;-78
2023/03/16 10:26:37;;;;;;;7.20;5.70;;;9.10;56.40;;;;;;6015764;23;20441;31
2023/03/16 10:32:30;;;;;;;7.00;5.47;;;9.30;55.10;;;;;;6036335;23;20478;-78
2023/03/16 10:35:17;;;;;;;10.43;6.57;;;9.30;55.20;;;;;;5989377;23;20493;-77
2023/03/16 10:40:37;;;;;;;7.20;5.77;;;9.60;55.30;;;;;;6114165;23;20441;-79
2023/03/16 10:43:15;;;;;;;7.20;5.00;;;9.80;54.40;;;;;;6099552;23;20443;-77
2023/03/16 10:48:34;;;;;;;6.47;4.70;;;9.80;53.60;;;;;;6103104;23;20506;-78
2023/03/16 10:51:07;;;;;;;5.47;4.07;;;9.90;53.70;;;;;;6077097;23;20869;-78
2023/03/16 10:53:50;;;;;;;6.70;5.10;;;10.00;52.80;;;;;;6075528;23;20380;-79
2023/03/16 10:56:49;;;;;;;6.03;5.00;;;10.00;52.70;;;;;;6099146;23;20389;-78
2023/03/16 11:03:04;;;;;;;8.40;6.03;;;10.20;52.50;;;;;;6095929;23;20453;-80
2023/03/16 11:05:37;;;;;;;5.70;4.60;;;10.30;52.40;;;;;;6066972;23;20420;-79
2023/03/16 11:08:22;;;;;;;8.70;4.77;;;10.30;51.50;;;;;;6071557;23;20380;-77
2023/03/16 11:11:05;;;;;;;5.40;4.07;;;10.30;51.80;;;;;;6070203;23;20388;-78
2023/03/16 11:13:43;;;;;;;9.60;4.70;;;10.20;51.90;;;;;;6047332;23;20385;-78
2023/03/16 11:19:31;;;;;;;5.10;4.23;;;10.40;52.40;;;;;;6125477;23;20477;-78
2023/03/16 11:22:30;;;;;;;7.78;5.55;;;10.60;52.10;;;;;;5991865;23;20412;-78
2023/03/16 11:25:34;;;;;;;5.23;4.73;;;10.50;51.70;;;;;;5968531;23;20139;-79
2023/03/16 11:34:13;;;;;;;8.73;4.73;;;10.50;51.30;;;;;;6094665;23;20444;-79
2023/03/16 11:36:56;;;;;;;4.00;2.90;;;10.40;51.60;;;;;;6045952;23;20779;-79
2023/03/16 11:40:18;;;;;;;8.00;4.00;;;10.50;52.10;;;;;;6075831;23;20476;-79
2023/03/16 11:42:56;;;;;;;5.77;4.63;;;10.60;50.90;;;;;;6075439;23;20432;-79
2023/03/16 11:48:25;;;;;;;6.00;3.77;;;10.40;51.50;;;;;;6036091;23;20383;-78
2023/03/16 11:51:32;;;;;;;4.17;3.10;;;10.60;51.50;;;;;;6055587;23;20468;-78
2023/03/16 11:54:59;;;;;;;6.37;3.67;;;10.60;51.70;;;;;;6007928;24;20381;-79
2023/03/16 11:57:45;;;;;;;6.20;3.30;;;10.80;50.90;;;;;;6009288;23;20372;-78
2023/03/16 12:00:23;;;;;;;4.10;3.37;;;10.80;50.80;;;;;;5984412;24;20403;-79
2023/03/16 12:03:29;;;;;;;4.10;3.13;;;10.80;50.70;;;;;;6007969;24;20408;-78
2023/03/16 12:06:44;;;;;;;5.80;3.43;;;10.90;50.70;;;;;;5952215;24;20370;-77
2023/03/16 12:10:01;;;;;;;3.90;2.90;;;11.00;50.60;;;;;;5869329;24;20374;-78
2023/03/16 12:13:21;;;;;;;5.60;3.00;;;10.90;50.60;;;;;;5848539;24;20396;-78
2023/03/16 12:16:02;;;;;;;4.70;3.37;;;10.90;50.60;;;;;;5870299;24;20405;-79
2023/03/16 12:18:52;;;;;;;5.23;3.60;;;11.10;50.50;;;;;;5847354;24;20783;-78
2023/03/16 12:21:58;;;;;;;5.37;3.40;;;11.30;50.40;;;;;;6041866;23;20513;-78
2023/03/16 12:24:31;;;;;;;6.60;3.30;;;11.30;50.60;;;;;;6048648;23;20494;-78
2023/03/16 12:27:13;;;;;;;6.93;4.10;;;11.60;50.30;;;;;;6047389;23;20389;-78
2023/03/16 12:36:20;;;;;;;4.50;3.40;;;12.10;49.10;;;;;;6084080;23;20455;-79
2023/03/16 12:49:02;;;;;;;6.30;4.18;;;12.60;48.60;;;;;;6084565;23;20449;-78
2023/03/16 12:52:13;;;;;;;4.33;2.77;;;12.70;47.00;;;;;;6044892;23;20204;-79
2023/03/16 12:55:39;;;;;;;8.47;3.63;;;12.70;47.40;;;;;;6048228;23;20490;-79
2023/03/16 12:58:45;;;;;;;5.80;3.23;;;12.50;47.50;;;;;;6094410;23;20416;-79
2023/03/16 13:03:57;;;;;;;6.40;3.60;;;12.50;47.70;;;;;;6093401;23;20448;-78
2023/03/16 13:06:39;;;;;;;4.70;2.93;;;12.70;47.60;;;;;;6040371;23;20398;-78
2023/03/16 13:09:30;;;;;;;4.70;3.07;;;12.60;47.50;;;;;;5971182;23;20396;-79
2023/03/16 13:12:21;;;;;;;4.10;3.00;;;12.60;47.60;;;;;;6006650;23;20392;-79
2023/03/16 13:26:47;;;;;;;6.00;2.50;;;13.00;46.10;;;;;;6093762;23;20432;-78
2023/03/16 13:29:19;;;;;;;6.20;2.90;;;12.80;46.60;;;;;;6070394;23;20399;-79
2023/03/16 13:31:45;;;;;;;3.20;2.47;;;12.80;46.70;;;;;;6046486;23;20433;-79
2023/03/16 13:34:38;;;;;;;4.07;2.27;;;12.70;46.90;;;;;;6045472;23;20449;-78
2023/03/16 13:37:23;;;;;;;4.03;2.10;;;12.80;46.70;;;;;;6011544;23;20920;-78
2023/03/16 13:40:23;;;;;;;4.90;3.30;;;12.50;45.60;;;;;;6013538;23;20655;-78
2023/03/16 13:42:59;;;;;;;3.50;2.27;;;12.40;46.00;;;;;;6040643;23;20433;-76
2023/03/16 13:45:51;;;;;;;5.47;2.97;;;12.20;45.80;;;;;;6010831;23;20460;-76
2023/03/16 13:48:23;;;;;;;3.83;2.10;;;12.20;46.10;;;;;;5983206;23;20407;-77
2023/03/16 13:51:21;;;;;;;4.67;2.50;;;12.10;46.80;;;;;;6034457;23;20478;-76
2023/03/16 13:53:52;;;;;;;2.20;1.70;;;12.00;47.10;;;;;;6010866;23;20400;-77
2023/03/16 13:56:25;;;;;;;6.17;2.20;;;12.00;47.00;;;;;;6010532;23;20440;-75
2023/03/16 13:58:53;;;;;;;4.90;2.13;;;11.90;46.80;;;;;;6011271;23;20359;-75
2023/03/16 14:01:29;;;;;;;3.80;2.20;;;11.90;47.30;;;;;;6009135;23;20400;-76
2023/03/16 14:03:59;;;;;;;4.33;2.50;;;11.90;47.10;;;;;;6032777;23;20399;-75
2023/03/16 14:06:34;;;;;;;3.27;2.47;;;11.80;47.20;;;;;;6033651;23;20376;-76
2023/03/16 14:09:18;;;;;;;3.20;2.13;;;11.80;47.50;;;;;;6033060;23;20386;-77
2023/03/16 14:11:48;;;;;;;3.90;1.80;;;11.90;47.60;;;;;;6012553;23;20399;-75
2023/03/16 14:14:22;;;;;;;3.47;2.20;;;11.80;47.20;;;;;;6012384;23;20391;-75
2023/03/16 14:20:31;;;;;;;9.40;3.83;;;11.90;47.40;;;;;;6069367;23;20464;-76
2023/03/16 14:23:02;;;;;;;4.97;2.23;;;11.90;47.70;;;;;;6047763;23;20404;-76
2023/03/16 14:25:28;;;;;;;4.37;2.50;;;11.90;47.80;;;;;;6068322;23;20377;-77
2023/03/16 14:28:22;;;;;;;4.00;2.10;;;11.90;47.70;;;;;;6067655;23;20256;-76
2023/03/16 14:31:01;;;;;;;4.72;3.42;;;11.90;47.40;;;;;;6072328;23;20409;-76
2023/03/16 14:33:50;;;;;;;4.03;2.40;;;12.10;47.30;;;;;;6071411;23;20143;-77
2023/03/16 14:36:38;;;;;;;4.27;2.20;;;12.10;47.30;;;;;;6008339;23;20396;-76
2023/03/16 14:39:15;;;;;;;5.27;2.50;;;12.10;47.30;;;;;;6071848;23;20357;-76
2023/03/16 14:41:42;;;;;;;5.50;2.80;;;12.00;47.60;;;;;;6045587;23;20381;-75
2023/03/16 14:44:23;;;;;;;3.77;2.20;;;12.00;47.30;;;;;;6068300;23;20365;-77
2023/03/16 14:46:59;;;;;;;5.20;2.10;;;12.10;47.10;;;;;;6047076;23;20378;-76
2023/03/16 14:49:37;;;;;;;8.40;2.30;;;12.20;46.70;;;;;;6048397;23;20390;-75
2023/03/16 14:52:22;;;;;;;4.53;2.60;;;12.10;46.90;;;;;;6067820;23;20378;-75
2023/03/16 14:54:54;;;;;;;4.77;1.97;;;12.10;47.10;;;;;;6040937;23;20476;-75